Time;durP1;ratioP1;P1;durP2;ratioP2;P2;SDS_P1;SDS_P2;PMS_P1;PMS_P2;Temp;Humidity;BMP_temperature;BMP_pressure;BME280_temperature;BME280_humidity;BME280_pressure;Samples;Min_cycle;Max_cycle;Signal;HPM_P1;HPM_P2
2023/06/23 00:01:54;;;;;;;6.72;4.40;;;22.90;99.90;;;;;;5034525;28;20520;-53
2023/06/23 00:04:40;;;;;;;6.70;4.57;;;22.60;99.90;;;;;;5036291;28;20048;-56
2023/06/23 00:07:26;;;;;;;8.45;4.65;;;22.30;99.90;;;;;;5029370;28;20101;-57
2023/06/23 00:10:12;;;;;;;7.32;5.35;;;22.10;99.90;;;;;;5015327;28;20096;-58
2023/06/23 00:12:59;;;;;;;8.07;4.47;;;21.90;99.90;;;;;;5015352;28;20041;-56
2023/06/23 00:15:45;;;;;;;7.60;4.78;;;21.80;99.90;;;;;;5017273;28;20103;-55
2023/06/23 00:18:32;;;;;;;7.82;4.72;;;21.70;99.90;;;;;;5016235;28;20030;-53
2023/06/23 00:21:19;;;;;;;7.88;4.90;;;21.60;99.90;;;;;;5016063;28;20061;-53
2023/06/23 00:24:06;;;;;;;7.25;4.45;;;21.60;99.90;;;;;;5015784;28;20026;-54
2023/06/23 00:26:52;;;;;;;6.80;4.45;;;21.50;99.90;;;;;;5014587;28;20033;-53
2023/06/23 00:29:38;;;;;;;5.85;4.65;;;21.50;99.90;;;;;;5021767;28;20088;-57
2023/06/23 00:32:24;;;;;;;6.53;4.55;;;21.50;99.90;;;;;;5023969;28;20034;-56
2023/06/23 00:35:13;;;;;;;7.32;4.55;;;21.50;99.90;;;;;;5024742;28;20030;-54
2023/06/23 00:37:59;;;;;;;6.82;4.20;;;21.40;99.90;;;;;;5035367;28;20029;-52
2023/06/23 00:40:44;;;;;;;7.60;4.30;;;21.40;99.90;;;;;;5034926;28;20037;-54
2023/06/23 00:43:31;;;;;;;5.22;4.05;;;21.40;99.90;;;;;;5034762;28;20117;-56
2023/06/23 00:46:20;;;;;;;5.63;3.67;;;21.50;99.90;;;;;;5035411;28;20517;-55
2023/06/23 00:49:06;;;;;;;4.95;3.80;;;21.60;99.90;;;;;;5040252;28;20080;-53
2023/06/23 00:51:53;;;;;;;5.50;3.33;;;21.70;99.90;;;;;;5030771;28;20034;-53
2023/06/23 00:54:40;;;;;;;5.47;3.20;;;21.80;99.90;;;;;;5034084;28;20116;-51
2023/06/23 00:57:28;;;;;;;4.75;3.15;;;21.70;99.90;;;;;;5033482;28;20100;-52
2023/06/23 01:00:18;;;;;;;5.70;3.30;;;21.70;99.90;;;;;;5035351;28;20034;-54
2023/06/23 01:03:04;;;;;;;5.90;2.90;;;21.70;99.90;;;;;;5034231;28;20056;-54
2023/06/23 01:05:51;;;;;;;3.60;2.92;;;21.60;99.90;;;;;;5033241;28;20084;-51
2023/06/23 01:09:01;;;;;;;4.78;3.17;;;21.60;99.90;;;;;;5033802;28;20514;-54
2023/06/23 01:12:06;;;;;;;5.85;3.10;;;21.70;99.90;;;;;;5032935;28;20033;-53
2023/06/23 01:14:56;;;;;;;3.85;3.10;;;21.70;99.90;;;;;;5036618;28;20049;-51
2023/06/23 01:18:09;;;;;;;3.95;3.30;;;21.60;99.90;;;;;;5034245;28;20159;-53
2023/06/23 01:21:01;;;;;;;3.67;2.97;;;21.70;99.90;;;;;;5031629;28;20380;-54
2023/06/23 01:24:05;;;;;;;5.20;2.92;;;21.70;99.90;;;;;;5034993;28;20662;-50
2023/06/23 01:27:09;;;;;;;6.13;3.05;;;21.70;99.90;;;;;;5033097;28;20044;-54
2023/06/23 01:29:58;;;;;;;4.63;3.15;;;21.80;99.90;;;;;;5025806;28;20156;-49
2023/06/23 01:32:50;;;;;;;5.32;3.05;;;21.90;99.90;;;;;;5014094;28;20041;-51
2023/06/23 01:35:44;;;;;;;4.38;3.15;;;21.80;99.90;;;;;;5028462;28;20581;-52
2023/06/23 01:38:36;;;;;;;4.68;3.45;;;21.70;99.90;;;;;;5033155;28;20416;-53
2023/06/23 01:41:28;;;;;;;4.80;3.08;;;21.80;99.90;;;;;;5032559;28;20056;-52
2023/06/23 01:44:16;;;;;;;4.60;3.00;;;21.90;99.90;;;;;;5033327;28;20057;-52
2023/06/23 01:47:11;;;;;;;4.03;2.80;;;22.00;99.90;;;;;;5032863;28;20033;-53
2023/06/23 01:50:00;;;;;;;;;;;22.00;99.90;;;;;;5033770;28;20042;-54
2023/06/23 01:52:48;;;;;;;4.15;3.08;;;22.00;99.90;;;;;;5034136;28;19916;-54
2023/06/23 01:55:36;;;;;;;5.00;2.95;;;22.00;99.90;;;;;;5032897;28;20026;-53
2023/06/23 01:58:24;;;;;;;3.53;3.20;;;22.00;99.90;;;;;;5012497;28;20398;-54
2023/06/23 02:01:10;;;;;;;5.53;3.30;;;21.90;99.90;;;;;;5014710;28;20033;-51
2023/06/23 02:03:58;;;;;;;4.43;3.10;;;21.80;99.90;;;;;;5032555;28;20026;-50
2023/06/23 02:06:47;;;;;;;4.22;3.13;;;21.70;99.90;;;;;;5039647;28;20047;-55
2023/06/23 02:09:35;;;;;;;4.88;3.05;;;21.70;99.90;;;;;;5028659;28;20529;-52
2023/06/23 02:12:22;;;;;;;6.28;3.08;;;21.70;99.90;;;;;;5012782;28;20435;-54
2023/06/23 02:15:09;;;;;;;5.55;3.30;;;21.70;99.90;;;;;;5012939;28;20058;-52
2023/06/23 02:17:56;;;;;;;4.47;3.72;;;21.70;99.90;;;;;;5011814;28;20104;-53
2023/06/23 02:20:44;;;;;;;5.15;3.50;;;21.70;99.90;;;;;;5012873;28;20029;-53
2023/06/23 02:23:31;;;;;;;4.85;3.05;;;21.70;99.90;;;;;;5012674;28;20495;-54
2023/06/23 02:26:18;;;;;;;4.47;3.30;;;21.60;99.90;;;;;;5012456;28;20134;-55
2023/06/23 02:29:06;;;;;;;6.38;3.72;;;21.60;99.90;;;;;;5018057;28;20379;-51
2023/06/23 02:31:52;;;;;;;5.32;3.50;;;21.70;99.90;;;;;;5033584;28;20079;-50
2023/06/23 02:34:38;;;;;;;4.72;2.78;;;21.70;99.90;;;;;;5033574;28;20038;-50
2023/06/23 02:37:26;;;;;;;3.30;3.00;;;21.70;99.90;;;;;;5033929;28;20520;-56
2023/06/23 02:40:18;;;;;;;5.85;3.45;;;21.70;99.90;;;;;;5034370;28;20104;-54
2023/06/23 02:43:23;;;;;;;5.38;3.17;;;21.70;99.90;;;;;;5035536;28;20030;-55
2023/06/23 02:46:10;;;;;;;;;;;21.70;99.90;;;;;;5044160;28;20089;-54
2023/06/23 02:49:03;;;;;;;4.68;3.00;;;21.70;99.90;;;;;;5033112;28;19905;-55
2023/06/23 02:51:55;;;;;;;5.63;3.10;;;21.70;99.90;;;;;;5032957;28;20060;-55
2023/06/23 02:54:47;;;;;;;4.97;3.10;;;21.70;99.90;;;;;;5032483;28;20036;-56
2023/06/23 02:57:34;;;;;;;5.03;2.95;;;21.80;99.90;;;;;;5031512;28;20025;-53
2023/06/23 03:00:23;;;;;;;4.50;3.03;;;21.80;99.90;;;;;;5031240;28;20542;-52
2023/06/23 03:03:14;;;;;;;4.65;3.13;;;21.70;99.90;;;;;;5033282;28;20395;-53
2023/06/23 03:06:00;;;;;;;4.30;2.83;;;21.70;99.90;;;;;;5031397;28;20030;-51
2023/06/23 03:08:49;;;;;;;4.53;3.33;;;21.70;99.90;;;;;;5031792;28;20101;-52
2023/06/23 03:11:37;;;;;;;3.92;2.90;;;21.70;99.90;;;;;;5031410;28;20083;-50
2023/06/23 03:14:23;;;;;;;5.00;3.13;;;21.70;99.90;;;;;;5032093;28;20018;-53
2023/06/23 03:17:26;;;;;;;4.18;3.22;;;21.60;99.90;;;;;;5032477;28;20592;-51
2023/06/23 03:20:46;;;;;;;4.50;3.30;;;21.60;99.90;;;;;;5032286;28;20087;-52
2023/06/23 03:23:37;;;;;;;4.72;3.25;;;21.60;99.90;;;;;;5017532;28;20117;-55
2023/06/23 03:26:24;;;;;;;6.07;3.63;;;21.50;99.90;;;;;;5012774;28;20088;-56
2023/06/23 03:29:11;;;;;;;4.63;3.55;;;21.40;99.90;;;;;;5013732;28;20057;-54
2023/06/23 03:32:02;;;;;;;4.72;3.53;;;21.40;99.90;;;;;;5012550;28;20041;-54
2023/06/23 03:34:56;;;;;;;5.00;3.28;;;21.40;99.90;;;;;;5012940;28;20117;-50
2023/06/23 03:37:57;;;;;;;4.90;3.00;;;21.40;99.90;;;;;;5015736;28;20034;-53
2023/06/23 03:40:54;;;;;;;5.25;2.88;;;21.40;99.90;;;;;;5016199;28;20114;-55
2023/06/23 03:43:49;;;;;;;5.57;3.20;;;21.40;99.90;;;;;;5015379;28;20084;-52
2023/06/23 03:46:45;;;;;;;5.75;3.00;;;21.40;99.90;;;;;;5014802;28;20120;-51
2023/06/23 03:49:45;;;;;;;8.75;3.75;;;21.40;99.90;;;;;;5016103;28;20096;-55
2023/06/23 03:52:33;;;;;;;5.88;3.97;;;21.50;99.90;;;;;;5032645;28;20134;-54
2023/06/23 03:55:20;;;;;;;7.80;4.00;;;21.60;99.90;;;;;;5034948;28;20083;-51
2023/06/23 03:58:07;;;;;;;9.18;3.97;;;21.50;99.90;;;;;;5034495;28;20021;-55
2023/06/23 04:00:56;;;;;;;4.82;3.63;;;21.50;99.90;;;;;;5035010;28;20052;-54
2023/06/23 04:03:44;;;;;;;7.28;3.85;;;21.50;99.90;;;;;;5036316;28;20052;-52
2023/06/23 04:06:33;;;;;;;8.50;4.30;;;21.50;99.90;;;;;;5035683;28;20040;-52
2023/06/23 04:09:20;;;;;;;7.63;4.75;;;21.60;99.90;;;;;;5034835;28;20478;-56
2023/06/23 04:12:10;;;;;;;5.38;4.40;;;21.60;99.90;;;;;;5034329;28;20437;-53
2023/06/23 04:14:57;;;;;;;13.95;5.38;;;21.70;99.90;;;;;;5034728;28;20037;-53
2023/06/23 04:17:45;;;;;;;12.02;4.70;;;21.70;99.90;;;;;;5035247;28;20021;-53
2023/06/23 04:20:32;;;;;;;11.63;4.70;;;21.70;99.90;;;;;;5018297;28;20087;-53
2023/06/23 04:23:19;;;;;;;9.20;4.25;;;21.80;99.90;;;;;;5024568;28;20064;-55
2023/06/23 04:26:08;;;;;;;9.43;4.32;;;21.80;99.90;;;;;;5015384;28;20026;-53
2023/06/23 04:28:56;;;;;;;8.65;4.32;;;21.80;99.90;;;;;;5014928;28;20029;-54
2023/06/23 04:31:44;;;;;;;10.48;5.05;;;21.80;99.90;;;;;;5016315;28;20029;-52
2023/06/23 04:34:30;;;;;;;10.00;5.38;;;21.90;99.90;;;;;;5015848;28;20054;-54
2023/06/23 04:37:38;;;;;;;8.88;4.72;;;21.80;99.90;;;;;;5014178;28;20030;-52
2023/06/23 04:40:31;;;;;;;8.13;4.65;;;21.80;99.90;;;;;;5014584;28;20022;-52
2023/06/23 04:43:26;;;;;;;7.53;4.70;;;21.80;99.90;;;;;;5016714;28;20410;-53
2023/06/23 04:46:28;;;;;;;10.15;5.30;;;21.80;99.90;;;;;;5016319;28;20117;-56
2023/06/23 04:49:20;;;;;;;8.98;5.20;;;21.80;99.90;;;;;;5014436;28;20360;-52
2023/06/23 04:52:08;;;;;;;11.05;5.38;;;21.80;99.90;;;;;;5013795;28;20018;-52
2023/06/23 04:54:59;;;;;;;11.50;5.38;;;21.80;99.90;;;;;;5015930;28;20478;-54
2023/06/23 04:57:47;;;;;;;11.30;5.13;;;21.90;99.90;;;;;;5014900;28;20117;-53
2023/06/23 05:00:35;;;;;;;8.88;5.85;;;21.90;99.90;;;;;;5027590;28;20666;-55
2023/06/23 05:03:23;;;;;;;9.52;5.75;;;22.00;99.90;;;;;;5017834;28;20375;-55
2023/06/23 05:06:11;;;;;;;12.13;5.72;;;22.00;99.90;;;;;;5014127;28;20034;-55
2023/06/23 05:09:01;;;;;;;9.07;5.63;;;22.10;99.90;;;;;;5017539;28;20037;-55
2023/06/23 05:11:48;;;;;;;15.30;8.15;;;22.20;99.90;;;;;;5020319;28;20041;-52
2023/06/23 05:14:38;;;;;;;12.38;7.82;;;22.30;99.90;;;;;;5035214;28;20159;-51
2023/06/23 05:17:27;;;;;;;16.25;8.73;;;22.40;99.90;;;;;;5037232;28;20026;-53
2023/06/23 05:20:17;;;;;;;10.57;7.70;;;22.50;99.90;;;;;;5036353;28;20083;-52
2023/06/23 05:23:05;;;;;;;16.17;7.75;;;22.80;99.90;;;;;;5034378;28;20021;-55
2023/06/23 05:25:52;;;;;;;13.45;7.68;;;22.90;99.90;;;;;;5034915;28;20493;-56
2023/06/23 05:28:39;;;;;;;15.25;8.45;;;22.90;99.90;;;;;;5013707;28;20026;-50
2023/06/23 05:31:27;;;;;;;21.20;8.60;;;22.90;99.90;;;;;;5017394;28;20082;-55
2023/06/23 05:34:17;;;;;;;15.75;8.80;;;23.00;99.90;;;;;;5025316;28;20149;-55
2023/06/23 05:37:05;;;;;;;13.50;8.18;;;23.00;99.90;;;;;;5014869;28;20120;-54
2023/06/23 05:39:51;;;;;;;12.13;7.57;;;23.10;99.90;;;;;;5014234;28;20045;-56
2023/06/23 05:42:38;;;;;;;14.45;8.05;;;23.00;99.90;;;;;;5014232;28;20406;-52
2023/06/23 05:45:24;;;;;;;14.82;8.10;;;22.90;99.90;;;;;;5014369;28;20052;-51
2023/06/23 05:48:23;;;;;;;19.13;9.20;;;22.80;99.90;;;;;;5013342;28;20030;-54
2023/06/23 05:51:14;;;;;;;19.88;8.68;;;22.70;99.90;;;;;;5016045;28;20410;-55
2023/06/23 05:54:08;;;;;;;14.20;7.80;;;22.70;99.90;;;;;;5023079;28;20092;-56
2023/06/23 05:57:00;;;;;;;15.07;6.90;;;22.60;99.90;;;;;;5017309;28;20033;-52
2023/06/23 05:59:52;;;;;;;12.95;7.13;;;22.40;99.90;;;;;;5014880;28;20475;-53
2023/06/23 06:02:41;;;;;;;7.75;5.72;;;22.30;99.90;;;;;;5013310;28;20058;-52
2023/06/23 06:05:28;;;;;;;10.20;5.55;;;22.00;99.90;;;;;;5014583;28;20414;-52
2023/06/23 06:08:15;;;;;;;5.78;4.75;;;21.80;99.90;;;;;;5033834;28;20025;-50
2023/06/23 06:11:02;;;;;;;8.25;4.25;;;21.70;99.90;;;;;;5032708;28;20034;-53
2023/06/23 06:13:51;;;;;;;9.75;4.60;;;21.70;99.90;;;;;;5032288;28;20507;-54
2023/06/23 06:16:38;;;;;;;8.55;4.65;;;21.50;99.90;;;;;;5033812;28;20061;-51
2023/06/23 06:19:27;;;;;;;5.72;4.38;;;21.40;99.90;;;;;;5033775;28;20033;-56
2023/06/23 06:22:15;;;;;;;6.97;4.18;;;21.50;99.90;;;;;;5043370;28;20057;-55
2023/06/23 06:25:04;;;;;;;10.13;4.50;;;21.40;99.90;;;;;;5044341;28;20464;-53
2023/06/23 06:27:52;;;;;;;7.40;4.53;;;21.40;99.90;;;;;;5034415;28;20026;-54
2023/06/23 06:30:40;;;;;;;4.60;3.65;;;21.50;99.90;;;;;;5019188;28;20036;-52
2023/06/23 06:33:28;;;;;;;4.88;3.88;;;21.40;99.90;;;;;;5025489;28;20030;-52
2023/06/23 06:36:15;;;;;;;8.40;3.75;;;21.60;99.90;;;;;;5016712;28;20394;-54
2023/06/23 06:39:03;;;;;;;10.18;4.43;;;21.60;99.90;;;;;;5025018;28;20402;-54
2023/06/23 06:41:50;;;;;;;4.85;3.17;;;21.70;99.90;;;;;;5013376;28;20030;-51
2023/06/23 06:44:36;;;;;;;14.82;4.78;;;21.80;99.90;;;;;;5017278;28;20556;-56
2023/06/23 06:47:24;;;;;;;4.80;3.80;;;21.90;99.90;;;;;;5026955;28;20109;-55
2023/06/23 06:50:13;;;;;;;5.88;3.42;;;22.10;99.90;;;;;;5013309;28;20118;-54
2023/06/23 06:53:00;;;;;;;6.20;3.67;;;22.10;99.90;;;;;;5012325;28;20490;-53
2023/06/23 06:55:48;;;;;;;4.03;3.35;;;22.20;99.90;;;;;;5013481;28;20036;-55
2023/06/23 06:58:35;;;;;;;5.18;3.33;;;22.30;99.90;;;;;;5013251;28;20026;-50
2023/06/23 07:01:22;;;;;;;5.05;2.90;;;22.30;99.90;;;;;;5023013;28;20033;-52
2023/06/23 07:04:09;;;;;;;3.00;2.80;;;22.00;99.90;;;;;;5032991;28;20410;-53
2023/06/23 07:06:54;;;;;;;4.63;3.38;;;21.90;99.90;;;;;;5031915;28;20017;-57
2023/06/23 07:09:40;;;;;;;6.35;2.95;;;21.90;99.90;;;;;;5032062;28;20029;-50
2023/06/23 07:12:26;;;;;;;4.85;3.15;;;21.90;99.90;;;;;;5031840;28;20055;-52
2023/06/23 07:15:12;;;;;;;3.85;3.10;;;21.90;99.90;;;;;;5041927;28;20037;-55
2023/06/23 07:17:58;;;;;;;4.85;2.90;;;21.90;99.90;;;;;;5023914;28;20030;-51
2023/06/23 07:20:44;;;;;;;5.20;3.30;;;21.80;99.90;;;;;;5022110;28;20030;-50
2023/06/23 07:23:30;;;;;;;5.05;3.25;;;22.00;99.90;;;;;;5014358;28;20034;-54
2023/06/23 07:26:16;;;;;;;4.55;2.90;;;22.10;99.90;;;;;;5013699;28;20038;-50
2023/06/23 07:29:03;;;;;;;5.60;3.45;;;22.10;99.90;;;;;;5012079;28;20030;-55
2023/06/23 07:31:49;;;;;;;3.42;3.13;;;22.00;99.90;;;;;;5013023;28;20121;-54
2023/06/23 07:34:35;;;;;;;3.90;3.00;;;22.00;99.90;;;;;;5013948;28;20026;-51
2023/06/23 07:37:21;;;;;;;5.13;2.72;;;21.90;99.90;;;;;;5013823;28;20470;-49
2023/06/23 07:40:08;;;;;;;3.47;2.85;;;21.90;99.90;;;;;;5013234;28;20030;-51
2023/06/23 07:42:54;;;;;;;3.40;2.80;;;21.90;99.90;;;;;;5010254;28;20098;-49
2023/06/23 07:45:40;;;;;;;4.28;3.42;;;21.90;99.90;;;;;;5013141;28;20062;-51
2023/06/23 07:48:26;;;;;;;4.13;2.90;;;21.80;99.90;;;;;;5012428;28;20454;-51
2023/06/23 07:51:12;;;;;;;3.80;3.28;;;21.70;99.90;;;;;;5018034;28;20030;-50
2023/06/23 07:53:58;;;;;;;3.88;3.08;;;21.60;99.90;;;;;;5019355;28;20026;-52
2023/06/23 07:56:44;;;;;;;5.60;3.45;;;21.50;99.90;;;;;;5012714;28;20022;-50
2023/06/23 07:59:29;;;;;;;4.65;3.25;;;21.50;99.90;;;;;;5012128;28;20072;-52
2023/06/23 08:02:15;;;;;;;3.67;3.28;;;21.50;99.90;;;;;;5013155;28;20029;-50
2023/06/23 08:05:02;;;;;;;4.35;3.17;;;21.50;99.90;;;;;;5030477;28;20033;-54
2023/06/23 08:07:48;;;;;;;3.47;3.05;;;21.60;99.90;;;;;;5032239;28;20514;-53
2023/06/23 08:10:35;;;;;;;4.00;3.50;;;21.50;99.90;;;;;;5028696;28;20044;-53
2023/06/23 08:13:21;;;;;;;3.80;3.38;;;21.50;99.90;;;;;;5011242;28;20049;-55
2023/06/23 08:16:07;;;;;;;3.97;3.33;;;21.50;99.90;;;;;;5011581;28;20505;-56
2023/06/23 08:18:53;;;;;;;4.72;3.28;;;21.60;99.90;;;;;;5012335;28;20029;-54
2023/06/23 08:21:39;;;;;;;4.10;3.20;;;21.70;99.90;;;;;;5018686;28;20399;-51
2023/06/23 08:24:25;;;;;;;3.97;3.15;;;21.70;99.90;;;;;;5031993;28;20065;-55
2023/06/23 08:27:11;;;;;;;5.85;3.30;;;21.70;99.90;;;;;;5017485;28;20153;-59
2023/06/23 08:29:57;;;;;;;5.43;3.67;;;21.70;99.90;;;;;;5031709;28;20036;-53
2023/06/23 08:32:43;;;;;;;4.13;3.42;;;21.60;99.90;;;;;;5028684;28;20029;-49
2023/06/23 08:35:29;;;;;;;6.93;3.13;;;21.60;99.90;;;;;;5040604;28;20022;-53
2023/06/23 08:38:16;;;;;;;3.92;2.80;;;21.70;99.90;;;;;;5036714;28;20441;-50
2023/06/23 08:41:02;;;;;;;4.22;3.40;;;21.70;99.90;;;;;;5037676;28;20022;-52
2023/06/23 08:43:51;;;;;;;4.32;2.95;;;21.70;99.90;;;;;;5036816;28;20025;-54
2023/06/23 08:46:41;;;;;;;5.13;3.13;;;21.70;99.90;;;;;;5035504;28;20025;-51
2023/06/23 08:49:29;;;;;;;3.80;3.40;;;21.70;99.90;;;;;;5032810;28;20033;-54
2023/06/23 08:52:17;;;;;;;5.53;3.08;;;21.70;99.90;;;;;;5033432;28;20473;-49
2023/06/23 08:55:04;;;;;;;4.18;3.50;;;21.80;99.90;;;;;;5023133;28;20029;-52
2023/06/23 08:57:50;;;;;;;5.53;2.90;;;21.80;99.90;;;;;;5042285;28;20037;-49
2023/06/23 09:00:37;;;;;;;3.45;2.95;;;22.00;99.90;;;;;;5032034;28;20042;-49
2023/06/23 09:03:23;;;;;;;5.72;3.38;;;22.00;99.90;;;;;;5029433;28;20034;-51
2023/06/23 09:06:10;;;;;;;5.32;3.20;;;22.30;99.90;;;;;;5018901;28;20037;-51
2023/06/23 09:08:58;;;;;;;5.50;3.10;;;22.30;99.90;;;;;;5015632;28;20029;-53
2023/06/23 09:11:44;;;;;;;3.47;2.97;;;22.50;99.90;;;;;;5015757;28;20053;-49
2023/06/23 09:14:31;;;;;;;7.35;4.03;;;22.40;99.90;;;;;;5016737;28;20045;-52
2023/06/23 09:17:18;;;;;;;3.38;3.05;;;22.50;99.90;;;;;;5028764;28;20033;-52
2023/06/23 09:20:05;;;;;;;3.78;3.38;;;22.80;99.90;;;;;;5014683;28;20032;-49
2023/06/23 09:22:53;;;;;;;3.20;2.90;;;22.90;99.90;;;;;;5019290;28;20044;-52
2023/06/23 09:25:41;;;;;;;4.65;2.83;;;22.90;99.90;;;;;;5015396;28;20494;-53
2023/06/23 09:28:29;;;;;;;4.53;3.35;;;23.00;99.30;;;;;;5032866;28;20429;-50
2023/06/23 09:31:16;;;;;;;5.55;3.30;;;23.10;99.50;;;;;;5019376;28;20034;-51
2023/06/23 09:34:02;;;;;;;5.45;3.78;;;23.20;99.30;;;;;;5018206;28;20022;-55
2023/06/23 09:36:49;;;;;;;3.92;3.40;;;23.30;98.90;;;;;;5017919;28;20034;-54
2023/06/23 09:39:39;;;;;;;7.03;3.53;;;23.20;99.30;;;;;;5018552;28;20026;-53
2023/06/23 09:42:25;;;;;;;5.18;4.30;;;23.50;98.70;;;;;;5026709;28;20116;-55
2023/06/23 09:45:17;;;;;;;3.33;3.03;;;23.70;98.40;;;;;;5019082;28;20120;-54
2023/06/23 09:48:14;;;;;;;3.42;3.10;;;23.70;98.00;;;;;;5027604;28;20033;-54
2023/06/23 09:51:02;;;;;;;6.10;3.47;;;23.70;98.20;;;;;;5025381;28;20061;-51
2023/06/23 09:53:48;;;;;;;5.90;3.50;;;23.50;98.50;;;;;;5016839;28;20030;-53
2023/06/23 09:56:34;;;;;;;4.97;3.30;;;23.50;98.70;;;;;;5027375;28;20025;-52
2023/06/23 09:59:22;;;;;;;4.20;3.20;;;23.50;98.60;;;;;;5014012;28;20033;-55
2023/06/23 10:02:09;;;;;;;3.83;2.90;;;23.60;98.60;;;;;;5015446;28;20029;-53
2023/06/23 10:05:04;;;;;;;5.38;3.13;;;23.60;98.70;;;;;;5025505;28;20028;-53
2023/06/23 10:08:08;;;;;;;3.70;3.00;;;23.40;99.10;;;;;;5030481;28;20060;-55
2023/06/23 10:10:54;;;;;;;3.72;3.30;;;23.30;99.10;;;;;;5015000;28;20029;-52
2023/06/23 10:13:40;;;;;;;5.65;3.40;;;22.90;99.90;;;;;;5030291;28;20045;-51
2023/06/23 10:16:27;;;;;;;6.22;3.45;;;22.70;99.90;;;;;;5035099;28;20417;-54
2023/06/23 10:19:14;;;;;;;4.40;3.00;;;22.70;99.90;;;;;;5026822;28;20041;-54
2023/06/23 10:22:00;;;;;;;4.65;3.05;;;22.80;99.90;;;;;;5012902;28;20461;-54
2023/06/23 10:24:49;;;;;;;5.20;3.40;;;22.70;99.90;;;;;;5016229;28;20030;-53
2023/06/23 10:27:36;;;;;;;4.97;3.20;;;22.80;99.90;;;;;;5013813;28;20121;-51
2023/06/23 10:30:26;;;;;;;3.53;3.22;;;22.80;99.90;;;;;;5017643;28;20065;-51
2023/06/23 10:33:18;;;;;;;3.70;3.05;;;22.90;99.90;;;;;;5032043;28;20029;-51
2023/06/23 10:36:07;;;;;;;4.93;3.08;;;22.90;99.90;;;;;;5032263;28;20026;-54
2023/06/23 10:38:55;;;;;;;5.05;3.20;;;22.90;99.90;;;;;;5033128;28;20033;-54
2023/06/23 10:41:44;;;;;;;3.97;3.40;;;22.90;99.90;;;;;;5033016;28;20033;-55
2023/06/23 10:44:30;;;;;;;6.38;3.47;;;22.80;99.90;;;;;;5031732;28;20036;-52
2023/06/23 10:47:17;;;;;;;3.85;3.45;;;22.80;99.90;;;;;;5016986;28;20034;-53
2023/06/23 10:50:03;;;;;;;4.93;3.80;;;22.70;99.90;;;;;;5013034;28;20025;-52
2023/06/23 10:52:49;;;;;;;3.70;3.00;;;22.60;99.90;;;;;;5012998;28;20124;-54
2023/06/23 10:55:40;;;;;;;4.25;3.20;;;22.50;99.90;;;;;;5017842;28;20434;-53
2023/06/23 10:58:27;;;;;;;4.10;3.10;;;22.40;99.90;;;;;;5022163;28;20026;-54
2023/06/23 11:01:13;;;;;;;4.10;3.10;;;22.40;99.90;;;;;;5036012;28;20037;-51
2023/06/23 11:04:04;;;;;;;3.33;3.00;;;22.40;99.90;;;;;;5032391;28;20435;-56
2023/06/23 11:07:05;;;;;;;6.68;3.30;;;22.40;99.90;;;;;;5018885;28;20036;-51
2023/06/23 11:10:01;;;;;;;5.07;3.35;;;22.40;99.90;;;;;;5027652;28;20029;-56
2023/06/23 11:12:50;;;;;;;3.45;2.97;;;22.40;99.90;;;;;;5014717;28;20022;-53
2023/06/23 11:15:37;;;;;;;5.15;4.65;;;22.20;99.90;;;;;;5012370;28;20030;-54
2023/06/23 11:18:25;;;;;;;9.85;8.95;;;21.90;99.90;;;;;;5013366;28;20029;-56
2023/06/23 11:21:19;;;;;;;11.43;9.13;;;21.30;99.90;;;;;;5025369;28;20029;-55
2023/06/23 11:24:19;;;;;;;7.07;5.85;;;20.90;99.90;;;;;;5012166;28;20069;-54
2023/06/23 11:27:05;;;;;;;3.38;2.85;;;20.40;99.90;;;;;;5012599;28;20026;-55
2023/06/23 11:30:16;;;;;;;2.30;1.63;;;19.60;99.90;;;;;;5012622;28;20080;-53
2023/06/23 11:33:45;;;;;;;1.90;1.70;;;18.70;99.90;;;;;;5034158;28;20052;-52
2023/06/23 11:36:31;;;;;;;2.45;1.98;;;18.40;99.90;;;;;;5030961;28;20100;-51
2023/06/23 11:39:18;;;;;;;2.15;1.95;;;18.20;99.90;;;;;;5032509;28;20030;-55
2023/06/23 11:42:04;;;;;;;2.30;2.10;;;17.80;99.90;;;;;;5023475;28;20065;-56
2023/06/23 11:44:55;;;;;;;3.92;2.10;;;17.60;99.90;;;;;;5034831;28;20049;-56
2023/06/23 11:47:41;;;;;;;3.88;2.00;;;17.50;99.90;;;;;;5033063;28;20029;-57
2023/06/23 11:50:27;;;;;;;2.90;2.20;;;17.50;99.90;;;;;;5029083;28;20041;-56
2023/06/23 11:53:15;;;;;;;2.28;2.03;;;17.40;99.90;;;;;;5027587;28;20065;-54
2023/06/23 11:56:02;;;;;;;3.38;2.35;;;17.30;99.90;;;;;;5032042;28;20600;-59
2023/06/23 11:58:51;;;;;;;3.08;2.70;;;17.20;99.90;;;;;;5048223;28;20089;-58
2023/06/23 12:01:37;;;;;;;2.70;2.50;;;17.10;99.90;;;;;;5038228;28;20025;-57
2023/06/23 12:04:23;;;;;;;5.03;3.00;;;17.10;99.90;;;;;;5031034;28;20518;-57
2023/06/23 12:07:10;;;;;;;3.40;2.45;;;16.90;99.90;;;;;;5016526;28;20116;-58
2023/06/23 12:09:56;;;;;;;3.10;2.55;;;16.70;99.90;;;;;;5016824;28;20034;-55
2023/06/23 12:12:43;;;;;;;3.38;2.83;;;16.80;99.90;;;;;;5016482;28;20053;-58
2023/06/23 12:15:29;;;;;;;3.13;2.80;;;16.70;99.90;;;;;;5016941;28;20065;-56
2023/06/23 12:18:15;;;;;;;4.38;2.90;;;16.60;99.90;;;;;;5018718;28;20507;-57
2023/06/23 12:21:01;;;;;;;3.17;2.88;;;16.60;99.90;;;;;;5016188;28;20042;-56
2023/06/23 12:23:47;;;;;;;4.53;3.28;;;16.60;99.90;;;;;;5020048;28;20041;-56
2023/06/23 12:26:33;;;;;;;3.72;2.80;;;16.50;99.90;;;;;;5037485;28;20017;-56
2023/06/23 12:29:21;;;;;;;4.35;3.35;;;16.40;99.90;;;;;;5036465;28;20025;-56
2023/06/23 12:32:07;;;;;;;3.58;3.03;;;16.40;99.90;;;;;;5014267;28;20081;-56
2023/06/23 12:34:56;;;;;;;3.60;3.05;;;16.20;99.90;;;;;;5017753;28;20141;-55
2023/06/23 12:37:45;;;;;;;3.20;2.83;;;16.20;99.90;;;;;;5037738;28;20405;-56
2023/06/23 12:40:33;;;;;;;4.75;3.38;;;16.20;99.90;;;;;;5039800;28;20030;-55
2023/06/23 12:43:21;;;;;;;3.83;3.00;;;16.20;99.90;;;;;;5040636;28;20033;-54
2023/06/23 12:46:08;;;;;;;4.47;3.50;;;16.10;99.90;;;;;;5033735;28;20104;-56
2023/06/23 12:48:55;;;;;;;3.30;2.90;;;15.90;99.90;;;;;;5018156;28;20543;-56
2023/06/23 12:51:41;;;;;;;3.38;2.90;;;16.00;99.90;;;;;;5030747;28;20034;-54
2023/06/23 12:54:27;;;;;;;3.65;2.97;;;16.00;99.90;;;;;;5013623;28;20109;-55
2023/06/23 12:57:14;;;;;;;3.95;3.15;;;16.00;99.90;;;;;;5026237;28;20402;-53
2023/06/23 13:00:00;;;;;;;3.10;2.80;;;16.00;99.90;;;;;;5026513;28;20043;-53
2023/06/23 13:02:46;;;;;;;3.60;2.75;;;16.10;99.90;;;;;;5015557;28;20030;-55
2023/06/23 13:05:32;;;;;;;3.53;3.10;;;16.10;99.90;;;;;;5026726;28;20030;-54
2023/06/23 13:08:18;;;;;;;4.13;2.85;;;16.10;99.90;;;;;;5028978;28;20037;-52
2023/06/23 13:11:04;;;;;;;4.40;3.00;;;16.10;99.90;;;;;;5033258;28;20502;-52
2023/06/23 13:13:50;;;;;;;4.05;2.95;;;16.10;99.90;;;;;;5034905;28;20049;-56
2023/06/23 13:16:37;;;;;;;4.88;3.10;;;16.10;99.90;;;;;;5039286;28;20028;-52
2023/06/23 13:19:23;;;;;;;3.78;2.97;;;16.10;99.90;;;;;;5030965;28;20379;-53
2023/06/23 13:22:09;;;;;;;3.80;3.13;;;16.00;99.90;;;;;;5025436;28;20030;-53
2023/06/23 13:24:56;;;;;;;4.18;3.40;;;16.00;99.90;;;;;;5034528;28;20030;-54
2023/06/23 13:27:42;;;;;;;5.22;3.72;;;16.00;99.90;;;;;;5018499;28;20104;-53
2023/06/23 13:30:28;;;;;;;5.60;4.55;;;15.90;99.90;;;;;;5014375;28;20076;-54
2023/06/23 13:33:14;;;;;;;7.68;3.78;;;15.90;99.90;;;;;;5013927;28;20091;-55
2023/06/23 13:36:00;;;;;;;4.28;3.80;;;15.90;99.90;;;;;;5014146;28;20117;-52
2023/06/23 13:38:47;;;;;;;5.15;4.07;;;15.80;99.90;;;;;;5015238;28;20030;-57
2023/06/23 13:41:33;;;;;;;4.00;3.60;;;15.90;99.90;;;;;;5014920;28;20108;-54
2023/06/23 13:44:19;;;;;;;5.15;3.88;;;15.90;99.90;;;;;;5013489;28;20042;-55
2023/06/23 13:47:06;;;;;;;3.95;3.47;;;15.90;99.90;;;;;;5026374;28;20052;-52
2023/06/23 13:49:52;;;;;;;4.20;3.80;;;15.80;99.90;;;;;;5020828;28;20038;-56
2023/06/23 13:52:42;;;;;;;7.35;3.80;;;15.70;99.90;;;;;;5019088;28;20041;-56
2023/06/23 13:55:28;;;;;;;4.60;3.50;;;15.80;99.90;;;;;;5018466;28;20014;-56
2023/06/23 13:58:14;;;;;;;3.83;3.38;;;15.90;99.90;;;;;;5032876;28;20021;-55
2023/06/23 14:01:00;;;;;;;4.18;3.38;;;16.00;99.90;;;;;;5032272;28;20022;-57
2023/06/23 14:03:46;;;;;;;5.00;3.65;;;15.90;99.90;;;;;;5018314;28;20378;-58
2023/06/23 14:06:32;;;;;;;3.88;3.03;;;16.10;99.90;;;;;;5017863;28;20113;-56
2023/06/23 14:09:18;;;;;;;3.92;3.33;;;16.20;99.90;;;;;;5012574;28;20113;-57
2023/06/23 14:12:05;;;;;;;4.13;3.20;;;16.20;99.90;;;;;;5012737;28;20084;-56
2023/06/23 14:14:51;;;;;;;4.00;3.45;;;16.20;99.90;;;;;;5012658;28;20033;-57
2023/06/23 14:17:37;;;;;;;4.32;3.30;;;16.20;99.90;;;;;;5024102;28;20026;-56
2023/06/23 14:20:23;;;;;;;8.60;5.10;;;16.20;99.90;;;;;;5048947;28;20104;-54
2023/06/23 14:23:09;;;;;;;5.10;4.60;;;16.10;99.90;;;;;;5022504;28;20088;-57
2023/06/23 14:25:55;;;;;;;4.97;4.47;;;16.10;99.90;;;;;;5027417;28;20486;-55
2023/06/23 14:28:43;;;;;;;5.20;4.70;;;16.20;99.90;;;;;;5039116;28;20027;-56
2023/06/23 14:31:29;;;;;;;6.32;5.20;;;16.10;99.90;;;;;;5064319;28;20051;-54
2023/06/23 14:34:15;;;;;;;6.68;5.32;;;16.10;99.90;;;;;;5038922;28;20033;-52
2023/06/23 14:37:03;;;;;;;5.70;4.97;;;16.20;99.90;;;;;;5032477;28;20024;-53